createdAt,value
2018-07-31T00:00:44.786Z,11.37
2018-07-31T00:03:12.834Z,11.97
2018-07-31T00:05:40.331Z,8.67
2018-07-31T00:08:09.178Z,9.57
2018-07-31T00:10:36.748Z,10.70
2018-07-31T00:13:04.779Z,14.37
2018-07-31T00:15:33.476Z,10.53
2018-07-31T00:18:00.997Z,7.63
2018-07-31T00:20:29.731Z,8.13
2018-07-31T00:22:57.923Z,7.57
2018-07-31T00:25:25.420Z,8.93
2018-07-31T00:27:53.701Z,9.73
2018-07-31T00:30:21.807Z,9.97
2018-07-31T00:32:50.075Z,8.90
2018-07-31T00:35:17.920Z,10.27
2018-07-31T00:37:45.779Z,10.17
2018-07-31T00:40:13.380Z,13.63
2018-07-31T00:42:40.884Z,12.27
2018-07-31T00:45:08.841Z,10.60
2018-07-31T00:47:36.306Z,7.27
2018-07-31T00:50:03.767Z,11.43
2018-07-31T00:52:31.809Z,18.73
2018-07-31T00:54:59.331Z,9.57
2018-07-31T00:57:27.592Z,8.23
2018-07-31T00:59:55.512Z,8.30
2018-07-31T01:02:23.844Z,7.03
2018-07-31T01:04:51.768Z,9.70
2018-07-31T01:07:19.272Z,7.57
2018-07-31T01:09:47.371Z,6.90
2018-07-31T01:12:14.892Z,7.67
2018-07-31T01:14:42.832Z,9.43
2018-07-31T01:17:11.002Z,12.90
2018-07-31T01:19:38.520Z,9.07
2018-07-31T01:22:06.457Z,11.93
2018-07-31T01:24:34.376Z,8.97
2018-07-31T01:27:01.912Z,7.30
2018-07-31T01:29:29.822Z,8.07
2018-07-31T01:31:58.210Z,7.40
2018-07-31T01:34:26.044Z,8.50
2018-07-31T01:36:53.560Z,8.10
2018-07-31T01:39:21.082Z,9.30
2018-07-31T01:41:48.608Z,8.70
2018-07-31T01:44:16.536Z,9.23
2018-07-31T01:46:44.283Z,9.17
2018-07-31T01:49:12.240Z,7.10
2018-07-31T01:51:39.752Z,10.03
2018-07-31T01:54:08.123Z,7.90
2018-07-31T01:56:36.304Z,9.73
2018-07-31T01:59:04.379Z,8.70
2018-07-31T02:01:32.656Z,10.83
2018-07-31T02:04:00.160Z,9.13
2018-07-31T02:06:28.203Z,7.33
2018-07-31T02:08:56.748Z,8.43
2018-07-31T02:11:24.264Z,9.90
2018-07-31T02:13:52.945Z,10.23
2018-07-31T02:16:20.904Z,8.33
2018-07-31T02:18:48.634Z,19.70
2018-07-31T02:21:16.164Z,13.70
2018-07-31T02:23:44.187Z,8.73
2018-07-31T02:26:12.275Z,9.93
2018-07-31T02:28:40.794Z,8.20
2018-07-31T02:31:08.278Z,10.53
2018-07-31T02:33:36.360Z,9.50
2018-07-31T02:36:05.190Z,8.43
2018-07-31T02:38:33.643Z,8.63
2018-07-31T02:41:01.147Z,8.47
2018-07-31T02:43:29.155Z,8.03
2018-07-31T02:45:57.034Z,6.47
2018-07-31T02:48:24.531Z,7.60
2018-07-31T02:50:52.079Z,12.27
2018-07-31T02:53:20.104Z,9.43
2018-07-31T02:55:48.330Z,9.83
2018-07-31T02:58:16.266Z,15.77
2018-07-31T03:00:44.072Z,23.43
2018-07-31T03:03:11.599Z,15.47
2018-07-31T03:05:39.095Z,10.53
2018-07-31T03:08:06.658Z,11.13
2018-07-31T03:10:34.828Z,13.93
2018-07-31T03:13:02.980Z,16.60
2018-07-31T03:15:30.491Z,14.70
2018-07-31T03:17:58.009Z,12.60
2018-07-31T03:20:25.565Z,8.77
2018-07-31T03:22:53.488Z,7.67
2018-07-31T03:25:21.003Z,12.93
2018-07-31T03:27:48.515Z,13.33
2018-07-31T03:30:16.960Z,8.63
2018-07-31T03:32:44.920Z,8.10
2018-07-31T03:35:12.779Z,10.47
2018-07-31T03:37:40.275Z,9.73
2018-07-31T03:40:07.872Z,6.90
2018-07-31T03:42:35.928Z,9.00
2018-07-31T03:45:04.702Z,9.90
2018-07-31T03:47:32.244Z,11.20
2018-07-31T03:50:00.075Z,7.97
2018-07-31T03:52:28.408Z,7.87
2018-07-31T03:54:56.291Z,7.23
2018-07-31T03:57:24.639Z,6.13
2018-07-31T03:59:52.639Z,9.63
2018-07-31T04:02:20.219Z,9.57
2018-07-31T04:04:47.727Z,7.40
2018-07-31T04:07:15.310Z,7.93
2018-07-31T04:09:43.305Z,10.50
2018-07-31T04:12:10.817Z,10.53
2018-07-31T04:14:39.247Z,7.67
2018-07-31T04:17:06.833Z,8.97
2018-07-31T04:19:34.343Z,10.13
2018-07-31T04:22:02.399Z,11.07
2018-07-31T04:24:30.427Z,16.23
2018-07-31T04:26:57.930Z,9.43
2018-07-31T04:29:26.097Z,9.37
2018-07-31T04:31:54.173Z,9.70
2018-07-31T04:34:22.121Z,9.47
2018-07-31T04:36:49.640Z,11.60
2018-07-31T04:39:17.171Z,11.50
2018-07-31T04:41:45.363Z,11.17
2018-07-31T04:44:13.211Z,10.80
2018-07-31T04:46:40.709Z,11.00
2018-07-31T04:49:08.227Z,12.77
2018-07-31T04:51:36.143Z,13.73
2018-07-31T04:54:04.282Z,11.27
2018-07-31T04:56:31.807Z,11.93
2018-07-31T04:58:59.751Z,9.97
2018-07-31T05:01:27.327Z,12.17
2018-07-31T05:03:54.843Z,14.90
2018-07-31T05:06:22.411Z,12.40
2018-07-31T05:08:50.285Z,16.70
2018-07-31T05:11:17.883Z,11.77
2018-07-31T05:13:45.722Z,11.40
2018-07-31T05:16:13.311Z,10.53
2018-07-31T05:18:40.896Z,11.40
2018-07-31T05:21:08.447Z,11.10
2018-07-31T05:23:36.435Z,15.87
2018-07-31T05:26:04.202Z,15.07
2018-07-31T05:28:31.997Z,11.03
2018-07-31T05:30:59.848Z,11.57
2018-07-31T05:33:28.040Z,13.37
2018-07-31T05:35:56.638Z,13.67
2018-07-31T05:38:24.843Z,12.57
2018-07-31T05:40:52.776Z,16.50
2018-07-31T05:43:20.338Z,16.17
2018-07-31T05:45:48.139Z,13.13
2018-07-31T05:48:17.308Z,12.23
2018-07-31T05:50:44.851Z,16.80
2018-07-31T05:53:12.728Z,12.17
2018-07-31T05:55:41.425Z,17.83
2018-07-31T05:58:08.958Z,16.07
2018-07-31T06:00:37.060Z,13.20
2018-07-31T06:03:04.921Z,11.23
2018-07-31T06:05:32.856Z,12.17
2018-07-31T06:08:00.296Z,12.20
2018-07-31T06:10:27.800Z,11.80
2018-07-31T06:12:56.467Z,10.73
2018-07-31T06:15:24.054Z,11.03
2018-07-31T06:17:51.547Z,12.10
2018-07-31T06:20:19.110Z,22.00
2018-07-31T06:22:47.875Z,14.00
2018-07-31T06:25:15.880Z,17.97
2018-07-31T06:27:44.727Z,18.07
2018-07-31T06:30:13.640Z,11.00
2018-07-31T06:32:42.048Z,15.77
2018-07-31T06:35:10.060Z,13.23
2018-07-31T06:37:38.776Z,12.27
2018-07-31T06:40:06.584Z,14.10
2018-07-31T06:42:34.096Z,11.83
2018-07-31T06:45:02.314Z,10.10
2018-07-31T06:47:30.208Z,10.43
2018-07-31T06:49:58.232Z,10.80
2018-07-31T06:52:25.736Z,9.30
2018-07-31T06:54:53.792Z,9.47
2018-07-31T06:57:21.316Z,8.30
2018-07-31T06:59:48.823Z,9.60
2018-07-31T07:02:16.916Z,10.73
2018-07-31T07:04:44.419Z,10.37
2018-07-31T07:07:12.024Z,9.53
2018-07-31T07:09:40.273Z,9.30
2018-07-31T07:12:07.792Z,10.87
2018-07-31T07:14:35.768Z,9.40
2018-07-31T07:17:03.328Z,12.50
2018-07-31T07:19:31.464Z,10.93
2018-07-31T07:22:00.655Z,9.43
2018-07-31T07:24:28.729Z,9.00
2018-07-31T07:26:57.131Z,11.27
2018-07-31T07:29:25.336Z,8.80
2018-07-31T07:31:53.251Z,12.60
2018-07-31T07:34:21.131Z,8.27
2018-07-31T07:36:49.108Z,8.50
2018-07-31T07:39:16.632Z,9.43
2018-07-31T07:41:44.191Z,9.27
2018-07-31T07:44:12.719Z,9.83
2018-07-31T07:46:40.594Z,9.93
2018-07-31T07:49:08.637Z,8.23
2018-07-31T07:51:36.490Z,9.70
2018-07-31T07:54:04.593Z,9.00
2018-07-31T07:56:32.221Z,10.73
2018-07-31T07:58:59.801Z,11.50
2018-07-31T08:01:27.874Z,9.20
2018-07-31T08:03:55.382Z,9.03
2018-07-31T08:06:22.951Z,8.23
2018-07-31T08:08:50.531Z,15.67
2018-07-31T08:11:18.055Z,11.10
2018-07-31T08:13:46.052Z,9.60
2018-07-31T08:16:13.603Z,9.33
2018-07-31T08:18:41.123Z,10.23
2018-07-31T08:21:08.931Z,9.33
2018-07-31T08:23:36.964Z,8.77
2018-07-31T08:26:05.581Z,13.43
2018-07-31T08:28:34.101Z,7.87
2018-07-31T08:31:02.109Z,9.80
2018-07-31T08:33:30.101Z,8.77
2018-07-31T08:35:58.035Z,10.90
2018-07-31T08:38:25.484Z,10.23
2018-07-31T08:40:53.307Z,10.23
2018-07-31T08:43:21.146Z,10.80
2018-07-31T08:45:49.091Z,7.70
2018-07-31T08:48:16.715Z,12.03
2018-07-31T08:50:44.219Z,8.50
2018-07-31T08:53:11.752Z,10.23
2018-07-31T08:55:39.288Z,10.40
2018-07-31T08:58:07.273Z,9.63
2018-07-31T09:00:34.786Z,16.90
2018-07-31T09:03:02.319Z,12.20
2018-07-31T09:05:30.129Z,9.27
2018-07-31T09:07:58.275Z,8.80
2018-07-31T09:10:25.848Z,8.33
2018-07-31T09:12:53.899Z,12.83
2018-07-31T09:15:21.827Z,7.53
2018-07-31T09:17:49.553Z,7.47
2018-07-31T09:20:17.222Z,7.33
2018-07-31T09:22:45.221Z,7.53
2018-07-31T09:25:13.837Z,7.40
2018-07-31T09:27:42.169Z,7.07
2018-07-31T09:30:10.817Z,8.63
2018-07-31T09:32:45.507Z,8.73
2018-07-31T09:35:13.999Z,7.87
2018-07-31T09:37:41.594Z,9.10
2018-07-31T09:40:09.502Z,8.37
2018-07-31T09:42:37.370Z,10.10
2018-07-31T09:45:05.386Z,8.93
2018-07-31T09:47:33.606Z,9.20
2018-07-31T09:50:01.367Z,8.53
2018-07-31T09:52:28.944Z,14.97
2018-07-31T09:54:57.353Z,10.60
2018-07-31T09:57:25.456Z,10.97
2018-07-31T09:59:53.173Z,11.20
2018-07-31T10:02:20.667Z,10.80
2018-07-31T10:04:48.307Z,9.10
2018-07-31T10:07:15.819Z,9.83
2018-07-31T10:09:43.535Z,10.43
2018-07-31T10:12:11.177Z,9.07
2018-07-31T10:14:39.543Z,9.37
2018-07-31T10:17:07.432Z,7.97
2018-07-31T10:19:35.228Z,9.03
2018-07-31T10:22:03.368Z,8.73
2018-07-31T10:24:31.484Z,9.80
2018-07-31T10:26:59.520Z,10.27
2018-07-31T10:29:27.109Z,9.70
2018-07-31T10:31:55.167Z,14.03
2018-07-31T10:34:22.667Z,11.10
2018-07-31T10:36:51.344Z,10.43
2018-07-31T10:39:19.010Z,9.60
2018-07-31T10:41:47.016Z,10.23
2018-07-31T10:44:15.175Z,12.93
2018-07-31T10:46:42.681Z,9.67
2018-07-31T10:49:10.270Z,9.87
2018-07-31T10:51:37.792Z,11.33
2018-07-31T10:54:05.867Z,10.73
2018-07-31T10:56:33.363Z,10.43
2018-07-31T10:59:00.955Z,9.80
2018-07-31T11:01:29.088Z,31.60
2018-07-31T11:03:57.777Z,9.50
2018-07-31T11:06:25.230Z,10.40
2018-07-31T11:08:52.783Z,10.43
2018-07-31T11:11:20.427Z,11.60
2018-07-31T11:13:49.072Z,9.80
2018-07-31T11:16:16.848Z,10.93
2018-07-31T11:18:44.411Z,9.80
2018-07-31T11:21:12.033Z,9.50
2018-07-31T11:23:39.908Z,8.53
2018-07-31T11:26:07.824Z,8.57
2018-07-31T11:28:35.891Z,12.83
2018-07-31T11:31:03.515Z,8.60
2018-07-31T11:33:31.366Z,9.70
2018-07-31T11:35:59.291Z,9.93
2018-07-31T11:38:27.363Z,11.77
2018-07-31T11:40:54.882Z,15.70
2018-07-31T11:43:23.020Z,8.57
2018-07-31T11:45:51.042Z,9.57
2018-07-31T11:48:19.056Z,9.33
2018-07-31T11:50:47.539Z,8.27
2018-07-31T11:53:15.128Z,7.83
2018-07-31T11:55:43.085Z,8.17
2018-07-31T11:58:10.573Z,10.13
2018-07-31T12:00:38.103Z,11.70
2018-07-31T12:03:05.663Z,8.10
2018-07-31T12:05:33.223Z,8.10
2018-07-31T12:08:00.873Z,7.73
2018-07-31T12:10:28.425Z,8.00
2018-07-31T12:12:56.443Z,9.40
2018-07-31T12:15:23.968Z,7.90
2018-07-31T12:17:51.495Z,8.50
2018-07-31T12:20:19.353Z,8.30
2018-07-31T12:22:47.248Z,8.13
2018-07-31T12:25:14.768Z,8.57
2018-07-31T12:27:42.286Z,7.53
2018-07-31T12:30:10.480Z,7.60
2018-07-31T12:32:39.722Z,8.27
2018-07-31T12:35:08.225Z,7.53
2018-07-31T12:37:36.018Z,6.40
2018-07-31T12:40:04.615Z,7.90
2018-07-31T12:42:32.156Z,7.57
2018-07-31T12:45:00.287Z,6.67
2018-07-31T12:47:27.811Z,7.30
2018-07-31T12:49:56.344Z,7.03
2018-07-31T12:52:24.460Z,7.07
2018-07-31T12:54:53.115Z,6.07
2018-07-31T12:57:20.645Z,6.50
2018-07-31T12:59:48.231Z,7.30
2018-07-31T13:02:15.738Z,7.47
2018-07-31T13:04:43.312Z,7.27
2018-07-31T13:07:10.845Z,6.63
2018-07-31T13:09:38.411Z,6.30
2018-07-31T13:12:05.934Z,6.87
2018-07-31T13:14:34.187Z,6.27
2018-07-31T13:17:02.607Z,6.30
2018-07-31T13:19:30.695Z,7.30
2018-07-31T13:21:58.767Z,7.80
2018-07-31T13:24:26.579Z,7.13
2018-07-31T13:26:54.081Z,7.30
2018-07-31T13:29:22.035Z,6.40
2018-07-31T13:31:50.506Z,6.87
2018-07-31T13:34:18.575Z,6.13
2018-07-31T13:36:46.432Z,6.90
2018-07-31T13:39:14.693Z,6.30
2018-07-31T13:41:42.743Z,6.00
2018-07-31T13:44:10.973Z,6.63
2018-07-31T13:46:38.792Z,6.40
2018-07-31T13:49:06.634Z,8.90
2018-07-31T13:51:34.154Z,5.50
2018-07-31T13:54:01.728Z,6.53
2018-07-31T13:56:29.251Z,6.33
2018-07-31T13:58:56.843Z,6.03
2018-07-31T14:01:25.298Z,5.93
2018-07-31T14:03:52.768Z,5.97
2018-07-31T14:06:20.272Z,6.60
2018-07-31T14:08:47.926Z,6.07
2018-07-31T14:11:15.779Z,6.00
2018-07-31T14:13:43.894Z,5.80
2018-07-31T14:16:11.940Z,5.53
2018-07-31T14:18:39.809Z,5.43
2018-07-31T14:21:08.396Z,6.80
2018-07-31T14:23:36.371Z,6.03
2018-07-31T14:26:03.940Z,6.07
2018-07-31T14:28:31.920Z,5.60
2018-07-31T14:31:00.225Z,5.17
2018-07-31T14:33:28.168Z,4.63
2018-07-31T14:35:56.261Z,4.67
2018-07-31T14:38:24.526Z,4.60
2018-07-31T14:40:53.624Z,4.90
2018-07-31T14:43:21.539Z,4.93
2018-07-31T14:45:49.616Z,5.30
2018-07-31T14:48:17.471Z,5.20
2018-07-31T14:50:44.986Z,4.57
2018-07-31T14:53:12.713Z,4.37
2018-07-31T14:55:40.245Z,4.80
2018-07-31T14:58:07.771Z,5.20
2018-07-31T15:00:35.432Z,5.23
2018-07-31T15:03:03.020Z,5.20
2018-07-31T15:05:30.580Z,4.50
2018-07-31T15:07:58.084Z,4.43
2018-07-31T15:10:25.728Z,4.00
2018-07-31T15:12:53.800Z,4.43
2018-07-31T15:15:21.643Z,6.00
2018-07-31T15:17:49.688Z,4.37
2018-07-31T15:20:17.211Z,6.70
2018-07-31T15:22:45.136Z,4.87
2018-07-31T15:25:12.952Z,5.47
2018-07-31T15:27:41.793Z,4.30
2018-07-31T15:30:09.839Z,4.50
2018-07-31T15:32:38.262Z,5.30
2018-07-31T15:35:06.735Z,3.97
2018-07-31T15:37:34.769Z,4.17
2018-07-31T15:40:02.567Z,4.37
2018-07-31T15:42:30.906Z,4.00
2018-07-31T15:45:00.130Z,3.60
2018-07-31T15:47:28.747Z,4.00
2018-07-31T15:49:56.791Z,3.87
2018-07-31T15:52:25.069Z,4.00
2018-07-31T15:54:52.910Z,5.50
2018-07-31T15:57:20.951Z,3.47
2018-07-31T15:59:49.712Z,4.37
2018-07-31T16:02:17.571Z,3.97
2018-07-31T16:04:45.518Z,7.10
2018-07-31T16:07:15.051Z,3.40
2018-07-31T16:09:43.472Z,3.50
2018-07-31T16:12:11.816Z,3.57
2018-07-31T16:14:40.421Z,3.47
2018-07-31T16:17:08.693Z,3.97
2018-07-31T16:19:36.420Z,4.90
2018-07-31T16:22:04.674Z,3.80
2018-07-31T16:24:33.037Z,3.50
2018-07-31T16:27:01.926Z,3.60
2018-07-31T16:29:29.950Z,4.07
2018-07-31T16:31:58.176Z,4.10
2018-07-31T16:34:25.726Z,3.47
2018-07-31T16:36:53.687Z,3.30
2018-07-31T16:39:21.675Z,4.33
2018-07-31T16:41:49.586Z,4.00
2018-07-31T16:44:17.574Z,3.63
2018-07-31T16:46:45.104Z,4.33
2018-07-31T16:49:12.616Z,4.13
2018-07-31T16:51:40.212Z,3.93
2018-07-31T16:54:07.720Z,4.27
2018-07-31T16:56:35.312Z,4.13
2018-07-31T16:59:02.928Z,4.60
2018-07-31T17:01:30.544Z,4.00
2018-07-31T17:03:58.093Z,5.00
2018-07-31T17:06:26.082Z,6.60
2018-07-31T17:08:56.704Z,5.07
2018-07-31T17:11:24.803Z,6.50
2018-07-31T17:13:53.418Z,7.90
2018-07-31T17:16:20.952Z,4.77
2018-07-31T17:18:48.465Z,4.47
2018-07-31T17:21:16.712Z,5.00
2018-07-31T17:23:44.574Z,6.70
2018-07-31T17:26:12.094Z,4.47
2018-07-31T17:28:39.637Z,6.03
2018-07-31T17:31:07.208Z,4.27
2018-07-31T17:33:35.465Z,5.20
2018-07-31T17:36:03.432Z,5.10
2018-07-31T17:38:32.220Z,4.97
2018-07-31T17:41:00.203Z,6.50
2018-07-31T17:43:28.470Z,6.77
2018-07-31T17:45:56.363Z,6.50
2018-07-31T17:48:23.868Z,5.40
2018-07-31T17:50:51.512Z,7.70
2018-07-31T17:53:19.376Z,5.90
2018-07-31T17:55:46.872Z,4.93
2018-07-31T17:58:14.417Z,5.80
2018-07-31T18:00:41.931Z,5.67
2018-07-31T18:03:09.958Z,6.10
2018-07-31T18:05:38.408Z,6.00
2018-07-31T18:08:06.480Z,5.67
2018-07-31T18:10:34.023Z,6.33
2018-07-31T18:13:01.909Z,7.77
2018-07-31T18:15:29.898Z,8.30
2018-07-31T18:17:58.372Z,5.47
2018-07-31T18:20:25.865Z,5.20
2018-07-31T18:22:54.939Z,6.07
2018-07-31T18:25:22.505Z,10.40
2018-07-31T18:27:50.038Z,7.40
2018-07-31T18:30:18.138Z,8.77
2018-07-31T18:32:46.624Z,7.27
2018-07-31T18:35:14.880Z,6.33
2018-07-31T18:37:42.777Z,7.47
2018-07-31T18:40:10.366Z,7.80
2018-07-31T18:42:37.907Z,6.93
2018-07-31T18:45:06.024Z,5.90
2018-07-31T18:47:33.531Z,7.40
2018-07-31T18:50:01.147Z,6.57
2018-07-31T18:52:29.816Z,5.30
2018-07-31T18:54:57.411Z,6.33
2018-07-31T18:57:24.964Z,6.60
2018-07-31T18:59:53.925Z,6.87
2018-07-31T19:02:21.443Z,7.10
2018-07-31T19:04:48.971Z,5.03
2018-07-31T19:07:16.848Z,5.60
2018-07-31T19:09:45.115Z,6.60
2018-07-31T19:12:12.826Z,6.90
2018-07-31T19:14:40.805Z,7.90
2018-07-31T19:17:09.016Z,9.03
2018-07-31T19:19:37.013Z,6.50
2018-07-31T19:22:05.383Z,8.30
2018-07-31T19:24:33.336Z,9.17
2018-07-31T19:27:01.288Z,9.03
2018-07-31T19:29:28.843Z,8.80
2018-07-31T19:31:57.093Z,8.10
2018-07-31T19:34:24.887Z,9.20
2018-07-31T19:36:53.305Z,8.70
2018-07-31T19:39:20.843Z,9.80
2018-07-31T19:41:49.043Z,8.20
2018-07-31T19:44:17.020Z,11.00
2018-07-31T19:46:45.154Z,12.87
2018-07-31T19:49:12.835Z,8.80
2018-07-31T19:51:40.363Z,8.00
2018-07-31T19:54:08.243Z,7.20
2018-07-31T19:56:36.415Z,8.67
2018-07-31T19:59:04.712Z,9.30
2018-07-31T20:01:32.510Z,9.37
2018-07-31T20:04:01.451Z,8.20
2018-07-31T20:06:29.651Z,10.13
2018-07-31T20:08:57.710Z,18.37
2018-07-31T20:11:25.600Z,17.23
2018-07-31T20:13:54.784Z,10.70
2018-07-31T20:16:22.952Z,10.57
2018-07-31T20:18:51.059Z,9.03
2018-07-31T20:21:19.739Z,11.93
2018-07-31T20:23:47.619Z,8.27
2018-07-31T20:26:15.136Z,7.63
2018-07-31T20:28:43.435Z,8.90
2018-07-31T20:31:11.409Z,6.70
2018-07-31T20:33:39.279Z,6.40
2018-07-31T20:36:07.251Z,7.60
2018-07-31T20:38:35.632Z,6.50
2018-07-31T20:41:03.707Z,7.00
2018-07-31T20:43:31.781Z,8.67
2018-07-31T20:45:59.291Z,8.73
2018-07-31T20:48:28.016Z,10.77
2018-07-31T20:50:55.643Z,10.20
2018-07-31T20:53:23.177Z,10.30
2018-07-31T20:55:51.147Z,9.60
2018-07-31T20:58:18.675Z,12.37
2018-07-31T21:00:46.685Z,11.80
2018-07-31T21:03:15.415Z,9.63
2018-07-31T21:05:42.932Z,8.93
2018-07-31T21:08:10.631Z,7.43
2018-07-31T21:10:39.292Z,13.20
2018-07-31T21:13:07.571Z,8.20
2018-07-31T21:15:35.439Z,11.83
2018-07-31T21:18:02.970Z,9.90
2018-07-31T21:20:32.411Z,9.10
2018-07-31T21:23:00.392Z,8.13
2018-07-31T21:25:28.344Z,9.00
2018-07-31T21:27:56.275Z,12.00
2018-07-31T21:30:24.050Z,9.83
2018-07-31T21:32:52.155Z,6.67
2018-07-31T21:35:19.718Z,7.60
2018-07-31T21:37:47.511Z,12.07
2018-07-31T21:40:15.127Z,6.90
2018-07-31T21:42:42.626Z,7.33
2018-07-31T21:45:10.627Z,9.27
2018-07-31T21:47:38.175Z,9.00
2018-07-31T21:50:05.698Z,9.67
2018-07-31T21:52:33.265Z,10.33
2018-07-31T21:55:02.042Z,10.53
2018-07-31T21:57:29.619Z,8.30
2018-07-31T21:59:57.666Z,8.83
2018-07-31T22:02:25.704Z,11.03
2018-07-31T22:04:53.864Z,6.97
2018-07-31T22:07:21.371Z,9.40
2018-07-31T22:09:49.395Z,8.43
2018-07-31T22:12:17.837Z,11.70
2018-07-31T22:14:45.671Z,10.17
2018-07-31T22:17:13.715Z,9.30
2018-07-31T22:19:42.040Z,9.73
2018-07-31T22:22:09.963Z,8.50
2018-07-31T22:24:37.889Z,9.83
2018-07-31T22:27:05.802Z,12.00
2018-07-31T22:29:33.375Z,8.60
2018-07-31T22:32:01.400Z,8.30
2018-07-31T22:34:28.914Z,8.07
2018-07-31T22:36:57.255Z,11.53
2018-07-31T22:39:24.783Z,7.13
2018-07-31T22:41:52.322Z,8.53
2018-07-31T22:44:20.701Z,8.70
2018-07-31T22:46:49.051Z,10.73
2018-07-31T22:49:16.563Z,8.70
2018-07-31T22:51:44.104Z,9.70
2018-07-31T22:54:11.645Z,9.37
2018-07-31T22:56:39.806Z,11.00
2018-07-31T22:59:07.273Z,9.43
2018-07-31T23:01:35.187Z,9.77
2018-07-31T23:04:03.311Z,8.47
2018-07-31T23:06:31.381Z,10.20
2018-07-31T23:08:59.575Z,8.90
2018-07-31T23:11:27.115Z,10.90
2018-07-31T23:13:55.068Z,8.57
2018-07-31T23:16:23.186Z,10.10
2018-07-31T23:18:51.506Z,10.00
2018-07-31T23:21:19.779Z,8.30
2018-07-31T23:23:47.641Z,8.93
2018-07-31T23:26:15.160Z,7.90
2018-07-31T23:28:42.725Z,9.93
2018-07-31T23:31:10.354Z,10.50
2018-07-31T23:33:38.201Z,11.33
2018-07-31T23:36:06.280Z,12.57
2018-07-31T23:38:33.871Z,13.10
2018-07-31T23:41:01.395Z,13.63
2018-07-31T23:43:29.488Z,9.00
2018-07-31T23:45:57.527Z,9.90
2018-07-31T23:48:25.040Z,17.23
2018-07-31T23:50:52.602Z,11.80
2018-07-31T23:53:20.552Z,12.90
2018-07-31T23:55:48.082Z,12.53
2018-07-31T23:58:15.642Z,12.43
